Time;durP1;ratioP1;P1;durP2;ratioP2;P2;SDS_P1;SDS_P2;PMS_P1;PMS_P2;Temp;Humidity;BMP_temperature;BMP_pressure;BME280_temperature;BME280_humidity;BME280_pressure;Samples;Min_cycle;Max_cycle;Signal;HPM_P1;HPM_P2
2021/06/11 04:12:29;;;;;;;0.20;0.20;;;20.30;99.90;;;;;;5061075;23;20244;-78
2021/06/11 04:14:57;;;;;;;0.20;0.20;;;20.20;99.90;;;;;;4945597;29;20659;-77
2021/06/11 04:17:27;;;;;;;0.30;0.30;;;20.10;99.90;;;;;;4936920;29;20202;-77
2021/06/11 04:19:58;;;;;;;0.30;0.30;;;20.20;99.90;;;;;;4936993;28;20234;-80
2021/06/11 04:22:27;;;;;;;0.20;0.20;;;20.60;99.90;;;;;;4950902;29;20225;-79
2021/06/11 04:24:57;;;;;;;0.20;0.20;;;20.30;99.90;;;;;;4954147;29;20205;-78
2021/06/11 04:27:27;;;;;;;0.20;0.20;;;20.50;99.90;;;;;;4956967;29;20273;-79
2021/06/11 04:29:55;;;;;;;0.20;0.20;;;20.70;99.60;;;;;;4957419;29;20198;-80
2021/06/11 04:32:22;;;;;;;0.30;0.30;;;20.80;99.90;;;;;;4957541;29;20276;-80
2021/06/11 04:34:55;;;;;;;0.20;0.20;;;20.90;98.80;;;;;;4957351;29;20229;-82
2021/06/11 04:37:23;;;;;;;0.30;0.30;;;21.00;99.30;;;;;;4958464;28;20667;-80
2021/06/11 04:39:50;;;;;;;0.20;0.20;;;21.00;99.20;;;;;;4961095;29;20252;-80
2021/06/11 04:42:17;;;;;;;0.20;0.20;;;21.10;99.20;;;;;;4961490;29;20229;-78
2021/06/11 04:44:46;;;;;;;0.30;0.30;;;21.20;98.80;;;;;;4957524;29;20205;-78
2021/06/11 04:47:14;;;;;;;0.20;0.20;;;21.20;98.90;;;;;;4957249;29;20205;-78
2021/06/11 04:49:41;;;;;;;0.20;0.20;;;21.30;98.20;;;;;;4958046;29;20197;-78
2021/06/11 04:52:09;;;;;;;0.20;0.20;;;21.10;97.80;;;;;;4952387;29;20256;-78
2021/06/11 04:54:36;;;;;;;0.20;0.20;;;21.10;97.70;;;;;;4947071;29;20610;-78
2021/06/11 04:57:04;;;;;;;0.20;0.20;;;21.20;97.80;;;;;;4942011;29;20210;-78
2021/06/11 04:59:32;;;;;;;0.20;0.20;;;21.10;98.20;;;;;;4941540;29;20718;-79
2021/06/11 05:02:01;;;;;;;0.20;0.20;;;21.30;97.60;;;;;;4944124;29;20229;-78
2021/06/11 05:04:28;;;;;;;0.20;0.20;;;21.20;97.90;;;;;;4966583;29;20253;-80
2021/06/11 05:06:56;;;;;;;0.20;0.20;;;21.00;97.70;;;;;;4952978;28;20201;-78
2021/06/11 05:09:23;;;;;;;0.20;0.20;;;21.30;97.60;;;;;;4938460;29;20206;-79
2021/06/11 05:11:51;;;;;;;0.20;0.20;;;21.50;97.80;;;;;;4950880;29;20233;-79
2021/06/11 05:14:18;;;;;;;0.20;0.20;;;21.60;97.70;;;;;;4957894;29;20266;-78
2021/06/11 05:16:46;;;;;;;0.20;0.20;;;21.60;98.20;;;;;;4956536;29;20630;-78
2021/06/11 05:19:15;;;;;;;0.20;0.20;;;21.60;97.70;;;;;;4947074;29;20221;-78
2021/06/11 05:21:43;;;;;;;0.20;0.20;;;21.70;97.90;;;;;;4937446;29;20229;-79
2021/06/11 05:24:11;;;;;;;0.20;0.20;;;21.20;97.70;;;;;;4936806;29;20253;-78
2021/06/11 05:26:38;;;;;;;0.20;0.20;;;21.70;97.40;;;;;;4937472;29;20210;-78
2021/06/11 05:29:05;;;;;;;0.10;0.10;;;21.90;97.50;;;;;;4938194;29;20249;-76
2021/06/11 05:31:33;;;;;;;0.10;0.10;;;21.60;97.90;;;;;;4938030;29;20226;-79
2021/06/11 05:34:00;;;;;;;0.20;0.20;;;21.40;98.40;;;;;;4937812;29;20293;-77
2021/06/11 05:36:29;;;;;;;0.17;0.17;;;21.40;98.60;;;;;;4937603;28;20206;-78
2021/06/11 05:38:56;;;;;;;0.20;0.20;;;21.30;98.60;;;;;;4938297;29;20861;-78
2021/06/11 05:41:24;;;;;;;0.20;0.20;;;21.30;99.20;;;;;;4937955;29;20225;-79
2021/06/11 05:43:52;;;;;;;0.20;0.20;;;21.40;98.90;;;;;;4938246;29;20210;-78
2021/06/11 05:46:20;;;;;;;0.20;0.20;;;21.40;98.50;;;;;;4937517;29;20206;-79
2021/06/11 05:48:48;;;;;;;0.20;0.20;;;21.40;98.80;;;;;;4936737;29;20214;-77
2021/06/11 05:51:15;;;;;;;0.20;0.20;;;21.50;98.80;;;;;;4937779;29;20222;-77
2021/06/11 05:53:44;;;;;;;0.20;0.20;;;21.60;98.60;;;;;;4938075;29;20202;-78
2021/06/11 05:56:12;;;;;;;0.30;0.30;;;21.80;98.60;;;;;;4937512;29;20202;-76
2021/06/11 05:58:40;;;;;;;0.20;0.20;;;21.70;98.50;;;;;;4937567;29;20217;-76
2021/06/11 06:01:07;;;;;;;0.20;0.20;;;21.80;98.70;;;;;;4937437;29;20233;-78
2021/06/11 06:03:35;;;;;;;0.20;0.20;;;21.80;98.60;;;;;;4937807;29;20202;-77
2021/06/11 06:06:02;;;;;;;0.20;0.20;;;21.80;98.60;;;;;;4937204;29;20265;-78
2021/06/11 06:08:30;;;;;;;0.20;0.20;;;21.80;98.60;;;;;;4937041;29;20557;-78
2021/06/11 06:10:58;;;;;;;0.20;0.20;;;21.70;98.70;;;;;;4937265;29;20651;-78
2021/06/11 06:13:26;;;;;;;0.20;0.20;;;21.70;98.70;;;;;;4937530;29;20206;-77
2021/06/11 06:15:54;;;;;;;0.20;0.20;;;21.70;98.70;;;;;;4936883;29;20613;-78
2021/06/11 06:18:21;;;;;;;0.20;0.20;;;21.70;98.50;;;;;;4938078;29;20210;-80
2021/06/11 06:20:49;;;;;;;0.20;0.20;;;21.70;98.50;;;;;;4937158;29;20222;-78
2021/06/11 06:23:16;;;;;;;0.20;0.20;;;21.70;98.40;;;;;;4937746;29;20206;-79
2021/06/11 06:25:43;;;;;;;0.30;0.30;;;21.60;98.40;;;;;;4937119;29;20209;-79
2021/06/11 06:28:13;;;;;;;0.20;0.20;;;22.90;99.00;;;;;;4938000;29;20210;-78
2021/06/11 06:30:40;;;;;;;0.10;0.10;;;21.80;98.30;;;;;;4941143;29;20699;-78
2021/06/11 06:33:08;;;;;;;0.10;0.10;;;21.90;97.90;;;;;;4939948;29;20238;-78
2021/06/11 06:35:35;;;;;;;0.20;0.20;;;22.10;98.40;;;;;;4938670;29;20201;-79
2021/06/11 06:38:03;;;;;;;0.20;0.20;;;22.10;96.60;;;;;;4940804;29;20562;-79
2021/06/11 06:40:30;;;;;;;0.20;0.20;;;22.20;96.20;;;;;;4938703;29;20222;-80
2021/06/11 06:42:57;;;;;;;0.20;0.20;;;23.70;96.50;;;;;;4938431;29;20265;-80
2021/06/11 06:45:26;;;;;;;0.20;0.20;;;22.60;95.60;;;;;;4939159;29;20265;-79
2021/06/11 06:47:53;;;;;;;0.20;0.20;;;22.70;95.80;;;;;;4940810;29;20663;-79
2021/06/11 06:50:22;;;;;;;0.20;0.20;;;22.80;95.50;;;;;;4937693;29;20293;-77
2021/06/11 06:52:53;;;;;;;0.10;0.10;;;22.80;95.20;;;;;;4937045;29;20734;-77
2021/06/11 06:55:20;;;;;;;0.20;0.20;;;22.80;95.70;;;;;;4937299;29;20257;-77
2021/06/11 06:57:47;;;;;;;0.20;0.20;;;22.60;95.20;;;;;;4937799;29;20273;-76
2021/06/11 07:00:16;;;;;;;0.10;0.10;;;23.00;99.90;;;;;;4936995;29;20229;-78
2021/06/11 07:02:44;;;;;;;0.20;0.20;;;22.70;95.00;;;;;;4937747;29;20206;-77
2021/06/11 07:05:14;;;;;;;0.20;0.20;;;22.80;95.50;;;;;;4937092;29;20206;-78
2021/06/11 07:07:42;;;;;;;0.10;0.10;;;22.90;95.00;;;;;;4937339;29;20209;-78
2021/06/11 07:10:10;;;;;;;0.20;0.20;;;22.70;95.30;;;;;;4936937;29;20186;-78
2021/06/11 07:12:37;;;;;;;0.10;0.10;;;22.50;95.50;;;;;;4937387;29;20214;-77
2021/06/11 07:15:09;;;;;;;0.20;0.20;;;22.40;95.80;;;;;;4936262;29;20216;-80
2021/06/11 07:17:36;;;;;;;0.20;0.20;;;22.40;95.70;;;;;;4937694;29;20261;-78
2021/06/11 07:20:06;;;;;;;0.20;0.20;;;22.60;95.30;;;;;;4937416;29;20301;-78
2021/06/11 07:22:34;;;;;;;0.10;0.10;;;22.80;95.40;;;;;;4937345;29;20286;-78
2021/06/11 07:25:03;;;;;;;0.10;0.10;;;23.10;95.00;;;;;;4938003;29;20281;-78
2021/06/11 07:27:32;;;;;;;0.20;0.20;;;23.30;94.50;;;;;;4939257;29;20206;-77
2021/06/11 07:29:59;;;;;;;0.20;0.20;;;23.10;94.80;;;;;;4946377;29;20201;-77
2021/06/11 07:32:27;;;;;;;0.10;0.10;;;23.10;95.00;;;;;;4946513;29;20767;-77
2021/06/11 07:34:54;;;;;;;0.10;0.10;;;23.10;94.80;;;;;;4946956;29;20205;-77
2021/06/11 07:37:23;;;;;;;0.10;0.10;;;23.10;94.80;;;;;;4943678;29;20210;-77
2021/06/11 07:39:51;;;;;;;0.15;0.15;;;23.40;94.90;;;;;;4938788;29;20250;-77
2021/06/11 07:42:18;;;;;;;0.10;0.10;;;23.50;94.70;;;;;;4937666;29;20222;-77
2021/06/11 07:44:46;;;;;;;0.10;0.10;;;23.60;94.50;;;;;;4944307;29;20221;-77
2021/06/11 07:47:13;;;;;;;0.15;0.15;;;23.60;94.00;;;;;;4942271;29;20731;-77
2021/06/11 07:49:42;;;;;;;0.10;0.10;;;23.70;93.60;;;;;;4936482;29;20805;-77
2021/06/11 07:52:09;;;;;;;0.10;0.10;;;23.60;94.30;;;;;;4936631;29;20229;-77
2021/06/11 07:54:38;;;;;;;0.20;0.20;;;23.80;93.40;;;;;;4936773;29;20237;-78
2021/06/11 07:57:06;;;;;;;0.20;0.20;;;23.80;91.90;;;;;;4936801;29;20206;-77
2021/06/11 07:59:34;;;;;;;0.20;0.20;;;23.50;91.40;;;;;;4936534;29;20260;-77
2021/06/11 08:02:01;;;;;;;0.10;0.10;;;23.60;91.50;;;;;;4936746;29;20313;-78
2021/06/11 08:04:31;;;;;;;0.15;0.15;;;23.80;91.50;;;;;;4937496;29;20213;-79
2021/06/11 08:06:58;;;;;;;0.20;0.20;;;24.00;92.20;;;;;;4937055;29;20645;-78
2021/06/11 08:09:29;;;;;;;0.10;0.10;;;24.00;92.30;;;;;;4937010;29;20257;-78
2021/06/11 08:11:58;;;;;;;0.20;0.20;;;24.00;92.60;;;;;;4937009;29;20237;-78
2021/06/11 08:14:25;;;;;;;0.10;0.10;;;24.10;92.60;;;;;;4940805;29;20683;-78
2021/06/11 08:16:53;;;;;;;0.10;0.10;;;24.10;92.80;;;;;;4940570;29;20277;-78
2021/06/11 08:19:21;;;;;;;0.10;0.10;;;24.00;92.70;;;;;;4940940;29;20229;-78
2021/06/11 08:21:48;;;;;;;0.10;0.10;;;24.10;92.20;;;;;;4941254;29;20226;-77
2021/06/11 08:24:16;;;;;;;0.17;0.17;;;24.10;93.60;;;;;;4939256;29;20351;-77
2021/06/11 08:26:43;;;;;;;0.20;0.20;;;24.10;93.40;;;;;;4939697;29;20233;-77
2021/06/11 08:29:12;;;;;;;0.20;0.20;;;24.20;93.30;;;;;;4940429;29;20202;-77
2021/06/11 08:31:40;;;;;;;0.10;0.10;;;24.30;99.90;;;;;;4939877;29;20226;-77
2021/06/11 08:34:07;;;;;;;0.10;0.10;;;24.20;99.90;;;;;;4939778;29;20767;-78
2021/06/11 08:36:35;;;;;;;0.20;0.20;;;24.20;99.90;;;;;;4951479;28;20558;-77
2021/06/11 08:39:02;;;;;;;0.10;0.10;;;24.20;99.90;;;;;;4959105;29;20205;-77
2021/06/11 08:41:31;;;;;;;0.10;0.10;;;24.00;99.90;;;;;;4958716;29;20229;-78
2021/06/11 08:43:59;;;;;;;0.20;0.20;;;23.80;99.90;;;;;;4958473;29;20206;-78
2021/06/11 08:46:28;;;;;;;0.10;0.10;;;24.00;99.90;;;;;;4958435;29;20209;-77
2021/06/11 08:48:58;;;;;;;0.10;0.10;;;24.20;99.90;;;;;;4958590;29;20213;-78
2021/06/11 08:51:26;;;;;;;0.20;0.20;;;24.70;99.90;;;;;;4958396;29;20276;-77
2021/06/11 08:53:53;;;;;;;0.10;0.10;;;24.90;99.90;;;;;;4958331;29;20245;-77
2021/06/11 08:56:20;;;;;;;0.10;0.10;;;24.70;99.90;;;;;;4957832;29;20268;-77
2021/06/11 08:58:49;;;;;;;0.10;0.10;;;24.50;95.80;;;;;;4958221;29;20253;-77
2021/06/11 09:01:17;;;;;;;0.20;0.20;;;24.50;93.70;;;;;;4958025;29;20722;-77
2021/06/11 09:03:47;;;;;;;0.10;0.10;;;24.70;94.70;;;;;;4957951;29;20589;-76
2021/06/11 09:06:16;;;;;;;0.10;0.10;;;24.90;91.50;;;;;;4958218;29;20212;-78
2021/06/11 09:08:52;;;;;;;0.10;0.10;;;24.60;91.90;;;;;;4958156;29;20210;-78
2021/06/11 09:11:21;;;;;;;0.10;0.10;;;24.60;89.90;;;;;;4958290;29;20276;-78
2021/06/11 09:13:52;;;;;;;0.20;0.20;;;24.70;89.90;;;;;;4958478;29;20213;-78
2021/06/11 09:16:20;;;;;;;0.10;0.10;;;24.60;90.70;;;;;;4958239;29;20186;-79
2021/06/11 09:18:51;;;;;;;0.10;0.10;;;24.70;93.60;;;;;;4958422;29;20209;-78
2021/06/11 09:21:27;;;;;;;0.10;0.10;;;24.60;96.60;;;;;;4958445;29;20645;-78
2021/06/11 09:24:21;;;;;;;0.20;0.20;;;24.60;99.90;;;;;;4958312;28;20201;-77
2021/06/11 09:27:11;;;;;;;0.20;0.20;;;24.40;99.90;;;;;;4957929;29;20202;-78
2021/06/11 09:29:42;;;;;;;0.10;0.10;;;24.50;97.90;;;;;;4958219;29;20268;-78
2021/06/11 09:32:13;;;;;;;0.15;0.15;;;24.60;98.00;;;;;;4958421;29;20221;-79
2021/06/11 09:34:43;;;;;;;0.10;0.10;;;24.60;97.50;;;;;;4959378;29;20260;-78
2021/06/11 09:37:12;;;;;;;0.20;0.20;;;24.60;97.10;;;;;;4959253;29;20256;-78
2021/06/11 09:39:46;;;;;;;0.10;0.10;;;24.70;97.10;;;;;;4959090;29;20217;-78
2021/06/11 09:42:15;;;;;;;0.10;0.10;;;24.80;97.10;;;;;;4959241;29;20640;-78
2021/06/11 09:44:50;;;;;;;0.10;0.10;;;24.90;95.70;;;;;;4956950;29;20737;-77
2021/06/11 09:47:38;;;;;;;0.10;0.10;;;25.10;95.80;;;;;;4956753;29;20292;-76
2021/06/11 09:50:15;;;;;;;0.10;0.10;;;25.00;94.10;;;;;;4958228;29;20190;-77
2021/06/11 09:52:53;;;;;;;0.10;0.10;;;25.00;95.30;;;;;;4957800;29;20212;-79
2021/06/11 09:55:26;;;;;;;0.10;0.10;;;24.80;94.50;;;;;;4958325;29;20205;-78
2021/06/11 09:58:13;;;;;;;0.20;0.20;;;25.00;95.50;;;;;;4958058;29;20268;-78
2021/06/11 10:00:46;;;;;;;0.20;0.20;;;25.20;85.70;;;;;;4957986;29;20261;-78
2021/06/11 10:03:17;;;;;;;0.10;0.10;;;;;;;;;;4957361;29;20555;-76
2021/06/11 10:05:47;;;;;;;0.10;0.10;;;25.50;90.30;;;;;;4955846;29;20196;-77
2021/06/11 10:08:16;;;;;;;0.10;0.10;;;25.70;90.20;;;;;;4956375;29;20616;-78
2021/06/11 10:10:44;;;;;;;0.10;0.10;;;25.90;96.90;;;;;;4955956;29;20583;-78
2021/06/11 10:13:14;;;;;;;0.20;0.20;;;25.90;97.60;;;;;;4956139;29;20205;-78
2021/06/11 10:15:43;;;;;;;0.10;0.10;;;25.80;97.10;;;;;;4955565;29;20209;-78
2021/06/11 10:18:12;;;;;;;0.10;0.10;;;25.40;97.50;;;;;;4956127;29;20209;-78
2021/06/11 10:20:41;;;;;;;0.10;0.10;;;25.40;96.40;;;;;;4955919;29;20257;-79
2021/06/11 10:23:12;;;;;;;0.10;0.10;;;26.00;97.10;;;;;;4956716;29;20262;-78
2021/06/11 10:25:43;;;;;;;0.10;0.10;;;26.00;96.30;;;;;;4958560;29;20272;-81
2021/06/11 10:28:15;;;;;;;0.10;0.10;;;25.60;95.60;;;;;;4958995;29;20345;-81
2021/06/11 10:30:42;;;;;;;0.10;0.10;;;25.40;94.80;;;;;;4958975;29;20221;-81
2021/06/11 10:33:10;;;;;;;0.10;0.10;;;25.50;94.60;;;;;;4959148;29;20252;-81
2021/06/11 10:35:45;;;;;;;0.10;0.10;;;25.40;95.30;;;;;;4958159;28;20260;-81
2021/06/11 10:38:32;;;;;;;0.10;0.10;;;25.50;95.00;;;;;;4958806;29;20205;-80
2021/06/11 10:41:01;;;;;;;0.10;0.10;;;25.50;93.30;;;;;;4958445;29;20635;-81
2021/06/11 10:43:34;;;;;;;0.10;0.10;;;25.30;93.40;;;;;;4958551;29;20240;-79
2021/06/11 10:46:03;;;;;;;0.10;0.10;;;25.50;93.40;;;;;;4958448;29;20295;-81
2021/06/11 10:49:00;;;;;;;0.10;0.10;;;25.40;93.10;;;;;;4959177;29;20201;-81
2021/06/11 10:51:38;;;;;;;0.20;0.20;;;25.30;93.40;;;;;;4958608;29;20232;-81
2021/06/11 10:54:28;;;;;;;0.10;0.10;;;25.50;94.50;;;;;;4959016;29;20221;-81
2021/06/11 10:57:16;;;;;;;0.10;0.10;;;25.60;92.90;;;;;;4958418;29;20717;-79
2021/06/11 10:59:46;;;;;;;0.10;0.10;;;25.70;93.00;;;;;;4958846;29;20205;-81
2021/06/11 11:02:15;;;;;;;0.10;0.10;;;25.50;94.40;;;;;;4958810;29;20233;-81
2021/06/11 11:04:47;;;;;;;0.10;0.10;;;25.60;94.20;;;;;;4958177;29;20624;-82
2021/06/11 11:07:32;;;;;;;0.10;0.10;;;25.70;94.20;;;;;;4958233;29;20296;-80
2021/06/11 11:10:04;;;;;;;0.10;0.10;;;25.90;94.50;;;;;;4958338;29;20240;-79
2021/06/11 11:12:58;;;;;;;0.10;0.10;;;25.70;93.90;;;;;;4958217;29;20240;-78
2021/06/11 11:15:33;;;;;;;0.10;0.10;;;25.60;93.50;;;;;;4955124;29;20209;-80
2021/06/11 11:18:01;;;;;;;0.10;0.10;;;25.50;92.80;;;;;;4955654;29;20201;-80
2021/06/11 11:20:30;;;;;;;0.10;0.10;;;25.60;92.70;;;;;;4955363;29;20316;-78
2021/06/11 11:22:59;;;;;;;0.10;0.10;;;25.60;92.50;;;;;;4955217;29;20209;-77
2021/06/11 11:25:29;;;;;;;0.10;0.10;;;25.80;92.30;;;;;;4955003;29;20338;-80
2021/06/11 11:27:59;;;;;;;0.10;0.10;;;25.80;92.10;;;;;;4955756;29;20729;-78
2021/06/11 11:30:28;;;;;;;0.10;0.10;;;25.90;91.40;;;;;;4958721;29;20205;-78
2021/06/11 11:32:55;;;;;;;0.10;0.10;;;26.10;91.70;;;;;;4961345;29;20209;-81
2021/06/11 11:35:25;;;;;;;0.10;0.10;;;26.20;91.10;;;;;;4966388;28;20209;-78
2021/06/11 11:37:54;;;;;;;0.10;0.10;;;25.90;80.30;;;;;;4965083;28;20229;-79
2021/06/11 11:40:24;;;;;;;0.10;0.10;;;26.10;75.80;;;;;;4961899;29;20206;-81
2021/06/11 11:42:53;;;;;;;0.10;0.10;;;26.10;76.70;;;;;;4957911;29;20237;-81
2021/06/11 11:45:24;;;;;;;0.20;0.20;;;26.70;76.20;;;;;;4956953;29;20718;-81
2021/06/11 11:47:53;;;;;;;0.10;0.10;;;26.30;74.20;;;;;;4958348;28;20229;-81
2021/06/11 11:50:20;;;;;;;0.10;0.10;;;26.30;79.90;;;;;;4958110;29;20206;-78
2021/06/11 11:52:48;;;;;;;0.10;0.10;;;26.40;72.00;;;;;;4957754;29;20205;-81
2021/06/11 11:55:16;;;;;;;0.10;0.10;;;26.20;71.90;;;;;;4957369;29;20213;-78
2021/06/11 11:57:45;;;;;;;0.10;0.10;;;26.40;71.90;;;;;;4958181;29;20216;-81
2021/06/11 12:00:16;;;;;;;0.20;0.20;;;26.40;71.40;;;;;;4958070;29;20721;-78
2021/06/11 12:02:44;;;;;;;0.10;0.10;;;26.50;70.50;;;;;;4958663;29;20201;-80
2021/06/11 12:05:12;;;;;;;0.10;0.10;;;26.50;71.30;;;;;;4958051;29;20209;-79
2021/06/11 12:07:40;;;;;;;0.10;0.10;;;26.70;71.30;;;;;;4958902;29;20222;-82
2021/06/11 12:10:09;;;;;;;0.10;0.10;;;26.60;71.90;;;;;;4958733;29;20212;-81
2021/06/11 12:12:37;;;;;;;0.10;0.10;;;26.80;72.10;;;;;;4958588;29;20213;-82
2021/06/11 12:15:05;;;;;;;0.17;0.17;;;26.80;70.00;;;;;;4958551;29;20209;-77
2021/06/11 12:17:35;;;;;;;0.10;0.10;;;;;;;;;;4958793;29;20205;-82
2021/06/11 12:20:04;;;;;;;0.20;0.20;;;26.90;99.90;;;;;;4958688;29;20206;-82
2021/06/11 12:22:34;;;;;;;0.10;0.10;;;;;;;;;;4957933;29;20229;-82
2021/06/11 12:25:01;;;;;;;0.10;0.10;;;27.30;72.70;;;;;;4958452;29;20213;-80
2021/06/11 12:27:29;;;;;;;0.10;0.10;;;;;;;;;;4958891;29;20209;-82
2021/06/11 12:29:56;;;;;;;0.10;0.10;;;27.70;89.60;;;;;;4958170;29;20205;-82
2021/06/11 12:32:24;;;;;;;0.10;0.10;;;27.70;88.50;;;;;;4959149;29;20221;-82
2021/06/11 12:34:53;;;;;;;0.10;0.10;;;27.60;88.30;;;;;;4957726;29;20280;-79
2021/06/11 12:37:21;;;;;;;0.10;0.10;;;27.90;69.10;;;;;;4944728;29;20210;-81
2021/06/11 12:39:50;;;;;;;0.10;0.10;;;28.90;67.30;;;;;;4952678;29;20315;-82
2021/06/11 12:42:20;;;;;;;0.10;0.10;;;30.00;62.90;;;;;;4940736;29;20290;-80
2021/06/11 12:44:48;;;;;;;0.10;0.10;;;30.10;61.90;;;;;;4943512;29;20632;-80
2021/06/11 12:47:17;;;;;;;0.10;0.10;;;30.60;62.60;;;;;;4945910;29;20222;-80
2021/06/11 12:49:44;;;;;;;0.10;0.10;;;31.40;60.70;;;;;;4946318;29;20598;-78
2021/06/11 12:52:13;;;;;;;0.10;0.10;;;31.20;58.70;;;;;;4946117;29;20218;-80
2021/06/11 12:54:40;;;;;;;0.10;0.10;;;31.70;57.10;;;;;;4954309;29;20256;-80
2021/06/11 12:57:08;;;;;;;0.10;0.10;;;;;;;;;;4955570;29;20681;-79
2021/06/11 12:59:37;;;;;;;0.10;0.10;;;32.50;56.30;;;;;;4959424;28;20205;-81
2021/06/11 13:02:04;;;;;;;0.10;0.10;;;33.00;55.20;;;;;;4960679;29;20228;-78
2021/06/11 13:04:31;;;;;;;0.10;0.10;;;33.40;53.60;;;;;;4960287;29;20733;-81
2021/06/11 13:06:59;;;;;;;0.10;0.10;;;34.10;52.90;;;;;;4959748;29;20247;-79
2021/06/11 13:09:29;;;;;;;0.10;0.10;;;34.10;53.30;;;;;;4962677;29;20208;-78
2021/06/11 13:11:58;;;;;;;0.10;0.10;;;34.50;51.60;;;;;;4960150;29;20283;-78
2021/06/11 13:14:25;;;;;;;0.00;0.00;;;33.10;52.30;;;;;;4959863;29;20201;-79
2021/06/11 13:16:53;;;;;;;0.03;0.03;;;33.50;51.20;;;;;;4959081;29;20353;-78
2021/06/11 13:19:20;;;;;;;0.03;0.03;;;33.70;50.70;;;;;;4959413;29;20216;-78
2021/06/11 13:21:49;;;;;;;0.00;0.00;;;34.50;47.00;;;;;;4958364;29;20229;-79
2021/06/11 13:24:17;;;;;;;0.00;0.00;;;33.70;46.40;;;;;;4959673;29;20212;-79
2021/06/11 13:26:46;;;;;;;0.00;0.00;;;34.60;46.70;;;;;;4958646;29;20212;-79
2021/06/11 13:29:14;;;;;;;0.00;0.00;;;34.50;47.10;;;;;;4959226;29;20209;-79
2021/06/11 13:31:41;;;;;;;0.00;0.00;;;35.30;46.60;;;;;;4958013;29;20280;-80
2021/06/11 13:34:08;;;;;;;0.00;0.00;;;34.60;46.20;;;;;;4958752;29;20673;-79
2021/06/11 13:36:36;;;;;;;0.00;0.00;;;35.50;46.60;;;;;;4958975;29;20243;-79
2021/06/11 13:39:04;;;;;;;0.00;0.00;;;35.90;46.50;;;;;;4959903;29;20204;-79
2021/06/11 13:41:31;;;;;;;0.00;0.00;;;35.90;47.60;;;;;;4958555;29;20252;-77
2021/06/11 13:44:02;;;;;;;0.00;0.00;;;35.80;48.40;;;;;;4957343;29;20546;-77
2021/06/11 13:46:29;;;;;;;0.00;0.00;;;34.80;49.20;;;;;;4957945;29;20637;-77
2021/06/11 13:48:57;;;;;;;0.00;0.00;;;34.30;50.80;;;;;;4958517;29;20749;-79
2021/06/11 13:51:24;;;;;;;0.00;0.00;;;33.10;51.70;;;;;;4957941;29;20221;-78
2021/06/11 13:53:52;;;;;;;0.00;0.00;;;32.40;54.20;;;;;;4956998;29;20205;-78
2021/06/11 13:56:20;;;;;;;0.10;0.10;;;31.70;54.50;;;;;;4956343;29;20209;-78
2021/06/11 13:58:48;;;;;;;0.10;0.10;;;30.90;55.60;;;;;;4957429;29;20205;-77
2021/06/11 14:01:16;;;;;;;0.10;0.10;;;30.40;56.20;;;;;;4958270;29;20276;-77
2021/06/11 14:03:44;;;;;;;0.10;0.10;;;30.10;56.60;;;;;;4958215;29;20839;-78
2021/06/11 14:06:11;;;;;;;0.10;0.10;;;29.80;57.90;;;;;;4958191;29;20205;-78
2021/06/11 14:08:39;;;;;;;0.10;0.10;;;29.20;59.40;;;;;;4960104;29;20264;-78
2021/06/11 14:11:06;;;;;;;0.10;0.10;;;28.90;60.70;;;;;;4957274;28;20287;-78
2021/06/11 14:13:34;;;;;;;0.10;0.10;;;28.40;61.20;;;;;;4958544;29;20663;-79
2021/06/11 14:16:01;;;;;;;0.10;0.10;;;28.30;62.10;;;;;;4958094;29;20630;-78
2021/06/11 14:18:30;;;;;;;0.10;0.10;;;28.00;62.90;;;;;;4958047;29;20248;-79
2021/06/11 14:20:57;;;;;;;0.10;0.10;;;28.30;60.60;;;;;;4957992;29;20225;-78
2021/06/11 14:23:25;;;;;;;0.10;0.10;;;28.50;61.00;;;;;;4957975;29;20221;-78
2021/06/11 14:25:52;;;;;;;0.10;0.10;;;28.60;59.40;;;;;;4957761;29;20205;-78
2021/06/11 14:28:19;;;;;;;0.10;0.10;;;28.50;58.90;;;;;;4957701;29;20210;-78
2021/06/11 14:30:47;;;;;;;0.10;0.10;;;28.50;58.30;;;;;;4957249;29;20221;-78
2021/06/11 14:33:15;;;;;;;0.10;0.10;;;28.20;59.30;;;;;;4957272;29;20236;-79
2021/06/11 14:35:44;;;;;;;0.10;0.10;;;28.10;58.20;;;;;;4957945;29;20206;-78
2021/06/11 14:38:11;;;;;;;0.10;0.10;;;27.60;59.40;;;;;;4939830;29;20204;-78
2021/06/11 14:40:39;;;;;;;0.10;0.10;;;27.70;59.50;;;;;;4958304;29;20714;-78
2021/06/11 14:43:07;;;;;;;0.10;0.10;;;27.70;59.60;;;;;;4957773;29;20280;-79
2021/06/11 14:45:34;;;;;;;0.10;0.10;;;27.60;58.50;;;;;;4957827;29;20212;-79
2021/06/11 14:48:02;;;;;;;0.10;0.10;;;27.70;56.90;;;;;;4957866;29;20209;-79
2021/06/11 14:50:29;;;;;;;0.10;0.10;;;27.60;71.20;;;;;;4958509;29;20675;-79
2021/06/11 14:53:04;;;;;;;0.10;0.10;;;27.60;57.10;;;;;;4958018;29;20198;-79
2021/06/11 14:55:33;;;;;;;0.10;0.10;;;27.80;57.90;;;;;;4957374;29;20255;-79
2021/06/11 14:58:02;;;;;;;0.10;0.10;;;27.80;56.20;;;;;;4957817;29;20265;-79
2021/06/11 15:00:30;;;;;;;0.10;0.10;;;27.60;68.00;;;;;;4957624;29;20733;-78
2021/06/11 15:02:57;;;;;;;0.10;0.10;;;27.60;54.70;;;;;;4957134;29;20253;-78
2021/06/11 15:05:25;;;;;;;0.10;0.10;;;27.70;54.30;;;;;;4956507;29;20209;-78
2021/06/11 15:07:53;;;;;;;0.10;0.10;;;27.70;55.90;;;;;;4957958;29;20205;-78
2021/06/11 15:10:22;;;;;;;0.10;0.10;;;27.60;72.10;;;;;;4957664;29;20201;-79
2021/06/11 15:12:50;;;;;;;0.10;0.10;;;27.60;56.00;;;;;;4957884;29;20201;-79
2021/06/11 15:15:18;;;;;;;0.20;0.20;;;27.60;56.60;;;;;;4959506;29;20268;-78
2021/06/11 15:17:46;;;;;;;0.10;0.10;;;27.70;57.50;;;;;;4958948;29;20322;-78
2021/06/11 15:20:14;;;;;;;0.10;0.10;;;27.90;78.30;;;;;;4956930;29;20285;-79
2021/06/11 15:22:41;;;;;;;0.20;0.20;;;27.80;58.30;;;;;;4955911;28;20252;-79
2021/06/11 15:25:10;;;;;;;0.10;0.10;;;27.80;59.10;;;;;;4956691;28;20272;-79
2021/06/11 15:27:38;;;;;;;0.10;0.10;;;27.70;59.30;;;;;;4956461;29;20240;-79
2021/06/11 15:30:07;;;;;;;0.10;0.10;;;27.90;59.80;;;;;;4956540;29;20244;-79
2021/06/11 15:32:42;;;;;;;0.10;0.10;;;27.70;59.80;;;;;;4953248;28;20280;-79
2021/06/11 15:35:10;;;;;;;0.10;0.10;;;27.80;60.20;;;;;;4937881;29;20261;-79
2021/06/11 15:37:38;;;;;;;0.10;0.10;;;27.90;60.40;;;;;;4937745;29;20209;-79
2021/06/11 15:40:07;;;;;;;0.10;0.10;;;27.80;61.00;;;;;;4937639;29;20202;-79
2021/06/11 15:42:35;;;;;;;0.10;0.10;;;27.60;62.10;;;;;;4937316;29;20628;-79
2021/06/11 15:45:04;;;;;;;0.10;0.10;;;27.50;62.80;;;;;;4937299;29;20210;-79
2021/06/11 15:47:32;;;;;;;0.10;0.10;;;27.60;63.50;;;;;;4937188;29;20265;-79
2021/06/11 15:49:59;;;;;;;0.10;0.10;;;27.60;63.50;;;;;;4937200;29;20210;-79
2021/06/11 15:52:27;;;;;;;0.17;0.17;;;27.60;63.30;;;;;;4936948;29;20229;-79
2021/06/11 15:54:55;;;;;;;0.20;0.20;;;27.40;64.00;;;;;;4937039;29;20664;-80
2021/06/11 15:57:23;;;;;;;0.10;0.10;;;27.60;63.70;;;;;;4937283;29;20293;-79
2021/06/11 15:59:51;;;;;;;0.10;0.10;;;27.70;64.00;;;;;;4937559;29;20239;-79
2021/06/11 16:02:20;;;;;;;0.10;0.10;;;27.80;64.70;;;;;;4937321;29;20234;-79
2021/06/11 16:04:48;;;;;;;0.80;0.80;;;27.60;64.30;;;;;;4937354;29;20217;-79
2021/06/11 16:07:16;;;;;;;0.20;0.20;;;28.00;65.00;;;;;;4936904;29;20206;-78
2021/06/11 16:09:43;;;;;;;0.50;0.50;;;28.60;63.90;;;;;;4936663;29;20209;-79
2021/06/11 16:12:11;;;;;;;0.10;0.10;;;29.10;61.80;;;;;;4936844;29;20257;-79
2021/06/11 16:14:38;;;;;;;0.10;0.10;;;29.10;60.50;;;;;;4937672;29;20309;-80
2021/06/11 16:17:06;;;;;;;2.30;2.30;;;28.90;61.40;;;;;;4937239;29;20579;-80
2021/06/11 16:19:35;;;;;;;7.80;7.53;;;28.70;61.30;;;;;;4936603;29;20206;-81
2021/06/11 16:22:02;;;;;;;0.35;0.35;;;28.80;62.00;;;;;;4938876;29;20225;-82
2021/06/11 16:24:30;;;;;;;0.10;0.10;;;28.80;61.10;;;;;;4942185;29;20260;-79
2021/06/11 16:26:57;;;;;;;0.10;0.10;;;28.60;61.50;;;;;;4957363;29;20820;-75
2021/06/11 16:29:24;;;;;;;0.40;0.40;;;28.30;61.60;;;;;;4953478;29;20201;-78
2021/06/11 16:31:52;;;;;;;0.20;0.20;;;28.30;62.80;;;;;;4954052;29;20214;-78
2021/06/11 16:34:21;;;;;;;0.10;0.10;;;28.10;62.80;;;;;;4952551;29;20238;-79
2021/06/11 16:36:49;;;;;;;0.10;0.10;;;28.00;63.70;;;;;;4962778;29;20710;-79
2021/06/11 16:39:17;;;;;;;1.33;1.33;;;28.00;64.00;;;;;;4967005;29;20256;-81
2021/06/11 16:41:44;;;;;;;0.45;0.45;;;28.00;63.70;;;;;;4962120;29;20229;-82
2021/06/11 16:44:11;;;;;;;0.10;0.10;;;28.10;63.50;;;;;;4962742;29;20288;-80
2021/06/11 16:46:39;;;;;;;0.10;0.10;;;28.20;62.90;;;;;;4964019;29;20206;-80
2021/06/11 16:49:07;;;;;;;0.10;0.10;;;28.20;63.20;;;;;;4962809;29;20240;-82
2021/06/11 16:51:36;;;;;;;0.10;0.10;;;28.00;63.40;;;;;;4959991;29;20229;-82
2021/06/11 16:54:14;;;;;;;0.10;0.10;;;28.00;64.40;;;;;;4951639;28;20284;-81
2021/06/11 16:56:42;;;;;;;0.10;0.10;;;;;;;;;;4961709;29;20206;-82
2021/06/11 16:59:09;;;;;;;0.10;0.10;;;27.80;62.10;;;;;;4953554;29;20617;-82
2021/06/11 17:01:36;;;;;;;0.10;0.10;;;27.60;63.90;;;;;;4941048;29;20230;-81
2021/06/11 17:04:04;;;;;;;0.10;0.10;;;27.80;63.10;;;;;;4939648;29;20221;-82
2021/06/11 17:06:33;;;;;;;0.10;0.10;;;27.50;63.50;;;;;;4939395;29;20266;-82
2021/06/11 17:09:00;;;;;;;0.10;0.10;;;27.70;62.90;;;;;;4955193;28;20697;-81